Jack Robertson — WDE5993 — position and weather

sailwx.info

Track history (hours):
 
Tides and Currents Weather Stations Pressure Air Temp Water Temp Dewpoint Dewpoint Depression Visibility Wind Speed Wind Dir Waves Ship Positions

Oceanographic research ship Jack Robertson (United States)

Owner: University of Washington Applied Physics Laboratory, Seattle, WA. More information available from US FCC via Universal Licensing System and Coast Guard Vessel Documentation Center.

Last reported at 2017-Apr-30 19:34 UTC. Time now 2017-Apr-30 20:39 UTC.
Position N 48°07' W 123°27'.

; draft 1.7 m.

Type: Other ship. MMSI: 367374350.

Date/timePositionNaut miles runAvg speedWind from/ knotsBaromVisibWave heightAir tempDewpointWater temp
2017-Apr-30 19:34N 48°07' W 123°27'0 0.0
2017-Apr-30 19:23N 48°07' W 123°27'1 3.8
2017-Apr-30 19:00N 48°08' W 123°25'4 7.6
2017-Apr-30 18:30N 48°08' W 123°19'5 9.9
2017-Apr-30 17:59N 48°11' W 123°13'5 9.7
2017-Apr-30 17:30N 48°13' W 123°07'4 7.0
2017-Apr-30 16:58N 48°16' W 123°03'1 2.8
2017-Apr-30 16:30N 48°15' W 123°01'4 7.5
2017-Apr-30 16:00N 48°13' W 122°56'4 7.7
2017-Apr-30 15:27N 48°11' W 122°51'17 1.3
2017-Apr-30 01:40N 47°56' W 122°39'3 7.1
2017-Apr-30 01:16N 47°53' W 122°37'0 0.6
2017-Apr-30 00:45N 47°53' W 122°36'2 0.8
2017-Apr-29 22:46N 47°54' W 122°38'0 1.1
2017-Apr-29 22:27N 47°54' W 122°38'1 0.7
2017-Apr-29 21:15N 47°54' W 122°37'0 0.8
2017-Apr-29 20:59N 47°54' W 122°38'1 1.6
2017-Apr-29 20:28N 47°54' W 122°38'0 0.4
2017-Apr-29 20:00N 47°54' W 122°37'1 1.7
2017-Apr-29 19:25N 47°55' W 122°38'2 1.9
2017-Apr-29 18:22N 47°55' W 122°41'3 6.6
2017-Apr-29 17:55N 47°57' W 122°37'4 8.1
2017-Apr-29 17:28N 47°55' W 122°33'510.0
2017-Apr-29 17:00N 47°51' W 122°29'5 9.5
2017-Apr-29 16:30N 47°47' W 122°27'4 8.6
2017-Apr-29 16:00N 47°43' W 122°25'2 3.9
2017-Apr-29 15:30N 47°41' W 122°24'1 1.9
2017-Apr-29 15:00N 47°40' W 122°24'3 3.2
2017-Apr-29 13:59N 47°39' W 122°19'0 0.0
2017-Apr-29 13:27N 47°39' W 122°19'0 0.1
2017-Apr-29 13:00N 47°39' W 122°19'  
2017-Apr-21 21:17N 47°39' W 122°19'1 4.7
2017-Apr-21 21:00N 47°39' W 122°21'2 4.2
2017-Apr-21 20:30N 47°40' W 122°24'0 0.4
2017-Apr-21 20:00N 47°40' W 122°24'1 1.8
2017-Apr-21 19:30N 47°41' W 122°24'2 4.3
2017-Apr-21 19:01N 47°43' W 122°25'2 4.3
2017-Apr-21 18:30N 47°41' W 122°24'0 0.0
2017-Apr-21 18:00N 47°41' W 122°24'0 0.0
2017-Apr-21 17:30N 47°41' W 122°24'0 0.0
2017-Apr-21 17:00N 47°41' W 122°24'0 0.0
2017-Apr-21 16:30N 47°41' W 122°24'0 0.0
2017-Apr-21 16:00N 47°41' W 122°24'0 0.0
2017-Apr-21 15:31N 47°41' W 122°24'3 5.3
2017-Apr-21 15:00N 47°43' W 122°24'2 4.6
2017-Apr-21 14:30N 47°41' W 122°24'0 0.0
2017-Apr-20 20:23N 47°41' W 122°24'0 0.0
2017-Apr-20 20:00N 47°41' W 122°24'  
Track history (hours):
 
Tides and Currents Weather Stations Pressure Air Temp Water Temp Dewpoint Dewpoint Depression Visibility Wind Speed Wind Dir Waves Ship Positions

Oceanographic research ship Jack Robertson (United States)

Owner: University of Washington Applied Physics Laboratory, Seattle, WA. More information available from US FCC via Universal Licensing System and Coast Guard Vessel Documentation Center.

Last reported at 2017-Apr-30 19:34 UTC. Time now 2017-Apr-30 20:39 UTC.
Position N 48°07' W 123°27'.

; draft 1.7 m.

Type: Other ship. MMSI: 367374350.

Date/timePositionNaut miles runAvg speedWind from/ knotsBaromVisibWave heightAir tempDewpointWater temp
2017-Apr-30 19:34N 48°07' W 123°27'0 0.0
2017-Apr-30 19:23N 48°07' W 123°27'1 3.8
2017-Apr-30 19:00N 48°08' W 123°25'4 7.6
2017-Apr-30 18:30N 48°08' W 123°19'5 9.9
2017-Apr-30 17:59N 48°11' W 123°13'5 9.7
2017-Apr-30 17:30N 48°13' W 123°07'4 7.0
2017-Apr-30 16:58N 48°16' W 123°03'1 2.8
2017-Apr-30 16:30N 48°15' W 123°01'4 7.5
2017-Apr-30 16:00N 48°13' W 122°56'4 7.7
2017-Apr-30 15:27N 48°11' W 122°51'17 1.3
2017-Apr-30 01:40N 47°56' W 122°39'3 7.1
2017-Apr-30 01:16N 47°53' W 122°37'0 0.6
2017-Apr-30 00:45N 47°53' W 122°36'2 0.8
2017-Apr-29 22:46N 47°54' W 122°38'0 1.1
2017-Apr-29 22:27N 47°54' W 122°38'1 0.7
2017-Apr-29 21:15N 47°54' W 122°37'0 0.8
2017-Apr-29 20:59N 47°54' W 122°38'1 1.6
2017-Apr-29 20:28N 47°54' W 122°38'0 0.4
2017-Apr-29 20:00N 47°54' W 122°37'1 1.7
2017-Apr-29 19:25N 47°55' W 122°38'2 1.9
2017-Apr-29 18:22N 47°55' W 122°41'3 6.6
2017-Apr-29 17:55N 47°57' W 122°37'4 8.1
2017-Apr-29 17:28N 47°55' W 122°33'510.0
2017-Apr-29 17:00N 47°51' W 122°29'5 9.5
2017-Apr-29 16:30N 47°47' W 122°27'4 8.6
2017-Apr-29 16:00N 47°43' W 122°25'2 3.9
2017-Apr-29 15:30N 47°41' W 122°24'1 1.9
2017-Apr-29 15:00N 47°40' W 122°24'3 3.2
2017-Apr-29 13:59N 47°39' W 122°19'0 0.0
2017-Apr-29 13:27N 47°39' W 122°19'0 0.1
2017-Apr-29 13:00N 47°39' W 122°19'  
2017-Apr-21 21:17N 47°39' W 122°19'1 4.7
2017-Apr-21 21:00N 47°39' W 122°21'2 4.2
2017-Apr-21 20:30N 47°40' W 122°24'0 0.4
2017-Apr-21 20:00N 47°40' W 122°24'1 1.8
2017-Apr-21 19:30N 47°41' W 122°24'2 4.3
2017-Apr-21 19:01N 47°43' W 122°25'2 4.3
2017-Apr-21 18:30N 47°41' W 122°24'0 0.0
2017-Apr-21 18:00N 47°41' W 122°24'0 0.0
2017-Apr-21 17:30N 47°41' W 122°24'0 0.0
2017-Apr-21 17:00N 47°41' W 122°24'0 0.0
2017-Apr-21 16:30N 47°41' W 122°24'0 0.0
2017-Apr-21 16:00N 47°41' W 122°24'0 0.0
2017-Apr-21 15:31N 47°41' W 122°24'3 5.3
2017-Apr-21 15:00N 47°43' W 122°24'2 4.6
2017-Apr-21 14:30N 47°41' W 122°24'0 0.0
2017-Apr-20 20:23N 47°41' W 122°24'0 0.0
2017-Apr-20 20:00N 47°41' W 122°24'  

Dump ship's entire track history